createdAt,value
2018-03-08T00:01:16.654Z,42.73
2018-03-08T00:03:44.938Z,39.87
2018-03-08T00:06:13.176Z,38.17
2018-03-08T00:08:40.664Z,39.47
2018-03-08T00:11:08.938Z,37.93
2018-03-08T00:13:37.176Z,38.50
2018-03-08T00:16:04.648Z,35.47
2018-03-08T00:18:32.144Z,36.70
2018-03-08T00:21:00.385Z,36.17
2018-03-08T00:23:27.861Z,38.40
2018-03-08T00:25:55.360Z,36.20
2018-03-08T00:28:22.836Z,36.60
2018-03-08T00:30:50.306Z,36.60
2018-03-08T00:33:17.785Z,35.00
2018-03-08T00:35:46.026Z,38.27
2018-03-08T00:38:13.492Z,33.00
2018-03-08T00:40:40.985Z,32.77
2018-03-08T00:43:08.552Z,34.80
2018-03-08T00:45:36.793Z,34.73
2018-03-08T00:48:04.285Z,33.50
2018-03-08T00:50:31.758Z,33.90
2018-03-08T00:53:00.001Z,34.90
2018-03-08T00:55:27.493Z,33.43
2018-03-08T00:57:55.732Z,31.93
2018-03-08T01:00:25.010Z,31.47
2018-03-08T01:02:52.506Z,30.27
2018-03-08T01:05:19.977Z,28.77
2018-03-08T01:07:48.229Z,30.53
2018-03-08T01:10:15.719Z,32.33
2018-03-08T01:12:44.004Z,29.97
2018-03-08T01:15:12.290Z,28.37
2018-03-08T01:17:39.784Z,28.93
2018-03-08T01:20:07.256Z,28.67
2018-03-08T01:22:34.727Z,29.83
2018-03-08T01:25:02.226Z,30.57
2018-03-08T01:27:29.760Z,31.37
2018-03-08T01:29:58.019Z,27.60
2018-03-08T01:32:25.492Z,30.60
2018-03-08T01:34:52.960Z,28.80
2018-03-08T01:37:21.276Z,29.40
2018-03-08T01:39:48.749Z,27.40
2018-03-08T01:42:16.253Z,25.53
2018-03-08T01:44:44.508Z,29.10
2018-03-08T01:47:11.996Z,24.77
2018-03-08T01:49:40.281Z,23.53
2018-03-08T01:52:11.356Z,24.03
2018-03-08T01:54:38.836Z,23.20
2018-03-08T01:57:06.333Z,21.07
2018-03-08T01:59:34.601Z,19.00
2018-03-08T02:02:02.073Z,20.50
2018-03-08T02:04:30.333Z,21.17
2018-03-08T02:06:57.802Z,22.00
2018-03-08T02:09:26.060Z,20.87
2018-03-08T02:11:53.532Z,22.10
2018-03-08T02:14:21.002Z,19.90
2018-03-08T02:16:49.249Z,21.10
2018-03-08T02:19:16.720Z,20.67
2018-03-08T02:21:44.212Z,20.03
2018-03-08T02:24:11.684Z,21.00
2018-03-08T02:26:39.154Z,19.93
2018-03-08T02:29:06.674Z,21.67
2018-03-08T02:31:35.302Z,19.80
2018-03-08T02:34:03.039Z,19.40
2018-03-08T02:36:30.712Z,18.60
2018-03-08T02:38:58.340Z,17.93
2018-03-08T02:41:26.608Z,17.80
2018-03-08T02:43:54.083Z,18.90
2018-03-08T02:46:22.321Z,18.20
2018-03-08T02:48:49.842Z,17.43
2018-03-08T02:51:17.318Z,18.07
2018-03-08T02:53:44.794Z,16.90
2018-03-08T02:56:12.324Z,16.83
2018-03-08T02:58:39.805Z,15.83
2018-03-08T03:01:07.299Z,16.30
2018-03-08T03:03:34.927Z,15.23
2018-03-08T03:06:03.298Z,16.53
2018-03-08T03:08:31.196Z,15.60
2018-03-08T03:10:58.668Z,16.20
2018-03-08T03:13:26.136Z,14.60
2018-03-08T03:15:54.422Z,14.33
2018-03-08T03:18:22.661Z,16.60
2018-03-08T03:20:50.133Z,14.90
2018-03-08T03:23:17.640Z,17.80
2018-03-08T03:25:45.165Z,16.83
2018-03-08T03:28:13.411Z,15.87
2018-03-08T03:30:40.901Z,16.13
2018-03-08T03:33:09.145Z,17.40
2018-03-08T03:35:36.618Z,16.70
2018-03-08T03:38:04.144Z,16.17
2018-03-08T03:40:31.621Z,16.53
2018-03-08T03:42:59.094Z,14.53
2018-03-08T03:45:26.588Z,13.03
2018-03-08T03:47:54.831Z,14.40
2018-03-08T03:50:22.309Z,12.30
2018-03-08T03:52:50.572Z,14.53
2018-03-08T03:55:18.151Z,13.53
2018-03-08T03:57:46.393Z,14.40
2018-03-08T04:00:13.893Z,13.97
2018-03-08T04:02:42.128Z,13.70
2018-03-08T04:05:09.605Z,14.63
2018-03-08T04:07:37.110Z,14.60
2018-03-08T04:10:04.581Z,12.40
2018-03-08T04:12:32.056Z,14.80
2018-03-08T04:14:59.561Z,14.03
2018-03-08T04:17:27.802Z,11.77
2018-03-08T04:19:55.273Z,13.07
2018-03-08T04:22:22.780Z,13.23
2018-03-08T04:24:51.000Z,14.30
2018-03-08T04:27:18.483Z,12.80
2018-03-08T04:29:46.726Z,13.13
2018-03-08T04:32:14.226Z,12.97
2018-03-08T04:34:42.465Z,13.77
2018-03-08T04:37:09.938Z,15.60
2018-03-08T04:39:37.469Z,12.37
2018-03-08T04:42:04.927Z,12.87
2018-03-08T04:44:32.408Z,12.13
2018-03-08T04:47:01.544Z,13.00
2018-03-08T04:49:29.785Z,14.83
2018-03-08T04:51:57.281Z,13.62
2018-03-08T04:54:24.754Z,12.97
2018-03-08T04:56:52.228Z,15.17
2018-03-08T04:59:19.742Z,11.97
2018-03-08T05:01:47.987Z,11.60
2018-03-08T05:04:15.465Z,12.33
2018-03-08T05:06:43.035Z,12.70
2018-03-08T05:09:11.283Z,13.33
2018-03-08T05:11:38.751Z,13.80
2018-03-08T05:14:07.008Z,14.30
2018-03-08T05:16:34.484Z,11.80
2018-03-08T05:19:01.961Z,11.40
2018-03-08T05:21:29.445Z,13.37
2018-03-08T05:23:56.921Z,11.23
2018-03-08T05:26:24.412Z,12.00
2018-03-08T05:28:51.885Z,12.57
2018-03-08T05:31:20.126Z,12.27
2018-03-08T05:33:47.632Z,12.83
2018-03-08T05:36:15.453Z,13.27
2018-03-08T05:38:42.928Z,12.17
2018-03-08T05:41:10.421Z,12.07
2018-03-08T05:43:38.667Z,12.70
2018-03-08T05:46:06.136Z,9.93
2018-03-08T05:48:34.389Z,11.10
2018-03-08T05:51:01.865Z,10.00
2018-03-08T05:53:29.354Z,10.47
2018-03-08T05:55:57.610Z,11.30
2018-03-08T05:58:25.083Z,11.03
2018-03-08T06:00:53.357Z,10.70
2018-03-08T06:03:20.838Z,10.63
2018-03-08T06:05:49.096Z,10.83
2018-03-08T06:08:16.660Z,10.07
2018-03-08T06:10:44.900Z,9.90
2018-03-08T06:13:12.396Z,10.60
2018-03-08T06:15:40.637Z,11.17
2018-03-08T06:18:08.113Z,11.03
2018-03-08T06:20:35.615Z,9.27
2018-03-08T06:23:03.092Z,11.30
2018-03-08T06:25:30.560Z,9.80
2018-03-08T06:27:58.061Z,10.87
2018-03-08T06:30:25.535Z,8.97
2018-03-08T06:32:53.779Z,9.27
2018-03-08T06:35:21.272Z,9.73
2018-03-08T06:37:49.517Z,10.87
2018-03-08T06:40:18.493Z,9.10
2018-03-08T06:42:45.990Z,9.43
2018-03-08T06:45:14.228Z,8.17
2018-03-08T06:47:41.697Z,9.17
2018-03-08T06:50:09.194Z,10.37
2018-03-08T06:52:37.433Z,10.50
2018-03-08T06:55:04.910Z,8.70
2018-03-08T06:57:32.410Z,11.07
2018-03-08T06:59:59.889Z,11.70
2018-03-08T07:02:27.360Z,10.47
2018-03-08T07:04:54.854Z,10.47
2018-03-08T07:07:23.092Z,10.53
2018-03-08T07:09:50.598Z,9.00
2018-03-08T07:12:18.837Z,8.43
2018-03-08T07:14:46.306Z,9.20
2018-03-08T07:17:14.565Z,10.70
2018-03-08T07:19:42.042Z,11.83
2018-03-08T07:22:09.519Z,10.93
2018-03-08T07:24:37.782Z,10.77
2018-03-08T07:27:06.789Z,11.13
2018-03-08T07:29:35.049Z,10.67
2018-03-08T07:32:02.564Z,10.20
2018-03-08T07:34:30.049Z,10.10
2018-03-08T07:36:57.520Z,10.67
2018-03-08T07:39:25.014Z,11.80
2018-03-08T07:41:53.270Z,13.57
2018-03-08T07:44:20.749Z,13.20
2018-03-08T07:46:49.013Z,13.50
2018-03-08T07:49:17.260Z,12.50
2018-03-08T07:51:44.736Z,12.53
2018-03-08T07:54:12.236Z,14.97
2018-03-08T07:56:39.709Z,15.97
2018-03-08T07:59:07.205Z,16.27
2018-03-08T08:01:34.679Z,16.37
2018-03-08T08:04:02.936Z,18.37
2018-03-08T08:06:42.304Z,20.93
2018-03-08T08:09:10.574Z,21.53
2018-03-08T08:11:38.074Z,19.70
2018-03-08T08:14:05.564Z,22.60
2018-03-08T08:16:33.051Z,22.30
2018-03-08T08:19:01.320Z,20.70
2018-03-08T08:21:28.798Z,22.00
2018-03-08T08:23:57.034Z,20.37
2018-03-08T08:26:24.524Z,23.03
2018-03-08T08:28:52.802Z,21.60
2018-03-08T08:31:21.044Z,24.43
2018-03-08T08:33:48.542Z,24.57
2018-03-08T08:36:16.786Z,26.07
2018-03-08T08:38:44.259Z,24.10
2018-03-08T08:41:11.757Z,29.17
2018-03-08T08:43:39.237Z,33.97
2018-03-08T08:46:06.714Z,32.63
2018-03-08T08:48:34.209Z,34.20
2018-03-08T08:51:02.453Z,30.30
2018-03-08T08:53:29.950Z,31.87
2018-03-08T08:55:58.189Z,37.40
2018-03-08T08:58:25.681Z,37.57
2018-03-08T09:00:53.941Z,35.10
2018-03-08T09:03:22.916Z,39.60
2018-03-08T09:05:50.392Z,36.27
2018-03-08T09:08:17.889Z,33.90
2018-03-08T09:10:45.365Z,38.83
2018-03-08T09:13:12.856Z,36.47
2018-03-08T09:15:40.352Z,36.97
2018-03-08T09:18:08.625Z,36.23
2018-03-08T09:20:36.860Z,38.20
2018-03-08T09:23:04.353Z,34.20
2018-03-08T09:25:31.835Z,36.03
2018-03-08T09:28:00.077Z,37.17
2018-03-08T09:30:27.579Z,34.63
2018-03-08T09:32:55.110Z,35.30
2018-03-08T09:35:22.581Z,35.07
2018-03-08T09:37:50.839Z,37.13
2018-03-08T09:40:18.411Z,33.60
2018-03-08T09:42:46.648Z,32.50
2018-03-08T09:45:14.140Z,33.10
2018-03-08T09:47:42.384Z,38.50
2018-03-08T09:50:09.871Z,32.90
2018-03-08T09:52:38.143Z,35.13
2018-03-08T09:55:05.626Z,33.57
2018-03-08T09:57:33.865Z,30.80
2018-03-08T10:00:01.370Z,35.37
2018-03-08T10:02:29.613Z,34.00
2018-03-08T10:04:57.197Z,30.87
2018-03-08T10:07:25.468Z,32.07
2018-03-08T10:09:53.713Z,33.53
2018-03-08T10:12:21.196Z,29.80
2018-03-08T10:14:48.699Z,30.53
2018-03-08T10:17:16.181Z,31.43
2018-03-08T10:19:43.652Z,33.17
2018-03-08T10:22:11.154Z,31.83
2018-03-08T10:24:45.346Z,31.47
2018-03-08T10:27:12.847Z,31.00
2018-03-08T10:29:40.329Z,28.43
2018-03-08T10:32:07.806Z,29.30
2018-03-08T10:34:35.305Z,30.43
2018-03-08T10:37:03.569Z,33.37
2018-03-08T10:39:31.808Z,29.60
2018-03-08T10:41:59.308Z,31.00
2018-03-08T10:44:27.552Z,30.93
2018-03-08T10:46:55.026Z,37.27
2018-03-08T10:49:22.525Z,33.80
2018-03-08T10:51:50.005Z,30.40
2018-03-08T10:54:17.509Z,32.37
2018-03-08T10:56:44.985Z,31.57
2018-03-08T10:59:13.224Z,29.13
2018-03-08T11:01:43.573Z,30.20
2018-03-08T11:04:14.891Z,29.40
2018-03-08T11:06:42.371Z,29.80
2018-03-08T11:09:09.965Z,33.53
2018-03-08T11:11:37.454Z,28.87
2018-03-08T11:14:04.936Z,30.70
2018-03-08T11:16:32.445Z,27.37
2018-03-08T11:18:59.981Z,23.07
2018-03-08T11:21:28.224Z,26.10
2018-03-08T11:23:55.812Z,23.23
2018-03-08T11:26:23.285Z,22.63
2018-03-08T11:28:51.554Z,27.10
2018-03-08T11:31:19.833Z,29.33
2018-03-08T11:33:48.112Z,28.60
2018-03-08T11:36:16.357Z,29.03
2018-03-08T11:38:43.854Z,26.27
2018-03-08T11:41:12.096Z,29.60
2018-03-08T11:43:39.580Z,28.60
2018-03-08T11:46:07.842Z,27.33
2018-03-08T11:48:35.321Z,25.90
2018-03-08T11:51:03.561Z,26.60
2018-03-08T11:53:31.060Z,25.97
2018-03-08T11:55:59.312Z,29.10
2018-03-08T11:58:26.796Z,26.53
2018-03-08T12:00:55.208Z,26.07
2018-03-08T12:03:22.680Z,26.83
2018-03-08T12:05:50.214Z,23.40
2018-03-08T12:08:17.660Z,25.20
2018-03-08T12:10:45.906Z,25.63
2018-03-08T12:13:13.405Z,27.53
2018-03-08T12:15:40.880Z,27.60
2018-03-08T12:18:08.364Z,26.63
2018-03-08T12:20:35.901Z,27.57
2018-03-08T12:23:03.440Z,24.00
2018-03-08T12:25:30.997Z,24.53
2018-03-08T12:27:59.357Z,26.70
2018-03-08T12:30:26.881Z,26.10
2018-03-08T12:32:54.437Z,28.20
2018-03-08T12:35:22.061Z,24.30
2018-03-08T12:37:49.597Z,26.20
2018-03-08T12:40:17.076Z,23.70
2018-03-08T12:42:45.344Z,25.00
2018-03-08T12:45:13.584Z,27.03
2018-03-08T12:47:41.081Z,26.20
2018-03-08T12:50:09.353Z,24.83
2018-03-08T12:52:37.593Z,24.43
2018-03-08T12:55:05.074Z,26.50
2018-03-08T12:57:32.589Z,22.10
2018-03-08T13:00:00.075Z,25.27
2018-03-08T13:02:27.557Z,20.00
2018-03-08T13:04:55.048Z,24.27
2018-03-08T13:07:22.529Z,26.33
2018-03-08T13:09:50.001Z,24.93
2018-03-08T13:12:17.497Z,23.60
2018-03-08T13:14:45.745Z,21.50
2018-03-08T13:17:13.258Z,24.53
2018-03-08T13:19:40.733Z,22.23
2018-03-08T13:22:08.213Z,22.53
2018-03-08T13:24:35.689Z,22.30
2018-03-08T13:27:03.184Z,21.87
2018-03-08T13:29:31.425Z,24.27
2018-03-08T13:31:58.907Z,25.00
2018-03-08T13:34:27.172Z,21.97
2018-03-08T13:36:54.648Z,22.30
2018-03-08T13:39:22.896Z,22.93
2018-03-08T13:41:50.393Z,21.87
2018-03-08T13:44:18.637Z,21.00
2018-03-08T13:46:46.930Z,19.53
2018-03-08T13:49:27.166Z,20.23
2018-03-08T13:51:54.652Z,19.80
2018-03-08T13:54:22.908Z,19.17
2018-03-08T13:56:50.496Z,18.83
2018-03-08T13:59:18.753Z,19.80
2018-03-08T14:01:46.228Z,20.73
2018-03-08T14:04:14.497Z,18.87
2018-03-08T14:06:42.781Z,14.30
2018-03-08T14:09:11.026Z,15.87
2018-03-08T14:11:38.528Z,18.67
2018-03-08T14:14:06.767Z,19.10
2018-03-08T14:16:34.273Z,17.13
2018-03-08T14:19:01.753Z,19.50
2018-03-08T14:21:29.369Z,56.53
2018-03-08T14:23:57.629Z,247.33
2018-03-08T14:26:25.117Z,163.20
2018-03-08T14:28:53.389Z,22.53
2018-03-08T14:31:21.661Z,78.50
2018-03-08T14:33:49.958Z,62.20
2018-03-08T14:36:17.416Z,18.10
2018-03-08T14:38:44.900Z,19.70
2018-03-08T14:41:12.373Z,39.73
2018-03-08T14:43:39.867Z,31.77
2018-03-08T14:46:07.364Z,32.47
2018-03-08T14:48:34.841Z,15.40
2018-03-08T14:51:02.345Z,14.30
2018-03-08T14:53:30.593Z,12.70
2018-03-08T14:55:58.078Z,250.27
2018-03-08T14:58:25.581Z,168.00
2018-03-08T15:00:53.062Z,11.37
2018-03-08T15:03:20.545Z,5.20
2018-03-08T15:05:48.041Z,8.63
2018-03-08T15:08:15.516Z,9.80
2018-03-08T15:10:43.037Z,14.33
2018-03-08T15:13:11.305Z,15.40
2018-03-08T15:15:38.786Z,15.63
2018-03-08T15:18:07.027Z,15.50
2018-03-08T15:20:34.529Z,13.97
2018-03-08T15:23:02.009Z,10.27
2018-03-08T15:25:29.485Z,9.13
2018-03-08T15:27:56.984Z,7.67
2018-03-08T15:30:25.264Z,7.47
2018-03-08T15:32:53.506Z,12.03
2018-03-08T15:35:21.004Z,14.93
2018-03-08T15:37:49.251Z,12.40
2018-03-08T15:40:16.729Z,3.00
2018-03-08T15:42:45.012Z,2.87
2018-03-08T15:45:13.248Z,2.40
2018-03-08T15:47:40.745Z,2.63
2018-03-08T15:50:09.028Z,2.53
2018-03-08T15:52:37.267Z,2.50
2018-03-08T15:55:04.759Z,5.77
2018-03-08T15:57:33.001Z,8.37
2018-03-08T16:00:00.493Z,41.40
2018-03-08T16:02:28.777Z,10.63
2018-03-08T16:04:57.017Z,26.83
2018-03-08T16:07:36.493Z,17.43
2018-03-08T16:10:35.239Z,37.83
2018-03-08T16:13:02.749Z,22.70
2018-03-08T16:15:31.022Z,5.63
2018-03-08T16:17:59.304Z,5.10
2018-03-08T16:20:27.584Z,14.67
2018-03-08T16:22:55.827Z,7.20
2018-03-08T16:25:23.304Z,9.17
2018-03-08T16:27:51.585Z,5.40
2018-03-08T16:30:19.825Z,5.20
2018-03-08T16:32:47.324Z,3.63
2018-03-08T16:35:15.604Z,2.90
2018-03-08T16:37:43.838Z,3.43
2018-03-08T16:40:11.313Z,2.10
2018-03-08T16:42:38.792Z,1.83
2018-03-08T16:45:07.032Z,1.53
2018-03-08T16:47:34.523Z,2.83
2018-03-08T16:50:01.988Z,2.43
2018-03-08T16:52:30.228Z,1.83
2018-03-08T16:54:57.730Z,1.90
2018-03-08T16:57:25.987Z,1.90
2018-03-08T16:59:53.460Z,1.90
2018-03-08T17:02:21.730Z,2.73
2018-03-08T17:04:49.299Z,2.20
2018-03-08T17:07:17.586Z,2.10
2018-03-08T17:09:45.884Z,8.00
2018-03-08T17:12:13.361Z,2.87
2018-03-08T17:14:41.013Z,12.03
2018-03-08T17:17:09.314Z,5.50
2018-03-08T17:19:36.757Z,4.10
2018-03-08T17:22:04.220Z,4.43
2018-03-08T17:24:31.741Z,6.73
2018-03-08T17:27:00.620Z,7.63
2018-03-08T17:29:28.876Z,9.53
2018-03-08T17:31:58.039Z,10.73
2018-03-08T17:34:25.548Z,10.30
2018-03-08T17:36:53.126Z,11.90
2018-03-08T17:39:21.444Z,13.17
2018-03-08T17:41:48.943Z,12.20
2018-03-08T17:44:16.430Z,13.13
2018-03-08T17:46:44.717Z,14.90
2018-03-08T17:49:12.233Z,13.53
2018-03-08T17:51:39.736Z,15.03
2018-03-08T17:54:07.221Z,10.77
2018-03-08T17:56:34.698Z,7.90
2018-03-08T17:59:02.232Z,5.30
2018-03-08T18:01:29.705Z,5.17
2018-03-08T18:03:57.185Z,4.30
2018-03-08T18:06:24.786Z,3.83
2018-03-08T18:08:52.341Z,3.57
2018-03-08T18:11:20.712Z,3.80
2018-03-08T18:13:48.971Z,3.60
2018-03-08T18:16:16.448Z,3.53
2018-03-08T18:18:44.712Z,3.97
2018-03-08T18:21:12.233Z,4.30
2018-03-08T18:23:39.707Z,4.70
2018-03-08T18:26:07.255Z,4.13
2018-03-08T18:28:34.880Z,3.73
2018-03-08T18:31:02.428Z,3.13
2018-03-08T18:33:30.836Z,4.13
2018-03-08T18:35:58.505Z,3.97
2018-03-08T18:38:26.020Z,3.30
2018-03-08T18:40:54.408Z,4.40
2018-03-08T18:43:22.800Z,5.00
2018-03-08T18:45:50.346Z,4.07
2018-03-08T18:48:17.876Z,8.93
2018-03-08T18:50:45.405Z,5.47
2018-03-08T18:53:12.886Z,4.40
2018-03-08T18:55:40.383Z,5.70
2018-03-08T18:58:25.154Z,3.90
2018-03-08T19:00:53.453Z,4.47
2018-03-08T19:03:20.943Z,4.00
2018-03-08T19:05:48.887Z,5.53
2018-03-08T19:08:16.443Z,4.63
2018-03-08T19:10:44.801Z,4.30
2018-03-08T19:13:13.194Z,3.47
2018-03-08T19:15:40.707Z,4.53
2018-03-08T19:18:08.197Z,5.60
2018-03-08T19:20:36.442Z,5.20
2018-03-08T19:23:03.939Z,4.70
2018-03-08T19:25:31.552Z,5.10
2018-03-08T19:27:59.184Z,4.70
2018-03-08T19:30:26.761Z,7.50
2018-03-08T19:32:54.271Z,6.60
2018-03-08T19:35:22.587Z,5.80
2018-03-08T19:37:50.070Z,5.00
2018-03-08T19:40:17.565Z,4.63
2018-03-08T19:42:45.822Z,5.10
2018-03-08T19:45:13.449Z,3.93
2018-03-08T19:47:40.861Z,4.63
2018-03-08T19:50:09.152Z,5.27
2018-03-08T19:52:36.619Z,23.90
2018-03-08T19:55:04.124Z,4.50
2018-03-08T19:57:33.137Z,5.70
2018-03-08T20:00:00.630Z,4.80
2018-03-08T20:02:28.287Z,4.90
2018-03-08T20:04:55.824Z,14.53
2018-03-08T20:07:23.340Z,5.50
2018-03-08T20:09:50.887Z,5.27
2018-03-08T20:12:18.450Z,17.67
2018-03-08T20:14:45.952Z,7.63
2018-03-08T20:17:13.460Z,5.10
2018-03-08T20:19:40.976Z,18.50
2018-03-08T20:22:08.615Z,12.80
2018-03-08T20:24:36.101Z,12.90
2018-03-08T20:27:03.692Z,8.37
2018-03-08T20:29:31.236Z,6.03
2018-03-08T20:31:59.776Z,5.27
2018-03-08T20:34:27.310Z,4.70
2018-03-08T20:36:54.847Z,5.30
2018-03-08T20:39:23.178Z,15.80
2018-03-08T20:41:50.657Z,6.60
2018-03-08T20:44:18.171Z,4.80
2018-03-08T20:46:45.660Z,4.77
2018-03-08T20:49:13.311Z,5.97
2018-03-08T20:51:40.813Z,4.80
2018-03-08T20:54:09.096Z,5.07
2018-03-08T20:56:37.337Z,5.93
2018-03-08T20:59:04.877Z,5.97
2018-03-08T21:01:32.532Z,5.27
2018-03-08T21:04:00.114Z,6.97
2018-03-08T21:06:27.861Z,4.47
2018-03-08T21:08:57.040Z,27.67
2018-03-08T21:11:24.521Z,39.50
2018-03-08T21:13:52.044Z,6.50
2018-03-08T21:16:20.384Z,26.47
2018-03-08T21:18:47.876Z,9.80
2018-03-08T21:21:16.252Z,7.80
2018-03-08T21:23:43.766Z,7.53
2018-03-08T21:26:11.397Z,7.53
2018-03-08T21:28:38.877Z,4.57
2018-03-08T21:31:06.535Z,5.00
2018-03-08T21:33:34.061Z,5.10
2018-03-08T21:36:01.700Z,7.20
2018-03-08T21:38:29.401Z,5.20
2018-03-08T21:40:57.181Z,4.13
2018-03-08T21:43:24.952Z,3.30
2018-03-08T21:45:52.476Z,28.57
2018-03-08T21:48:20.727Z,8.53
2018-03-08T21:50:48.345Z,11.77
2018-03-08T21:53:16.017Z,25.33
2018-03-08T21:55:44.576Z,9.10
2018-03-08T21:58:12.227Z,13.73
2018-03-08T22:00:40.496Z,13.60
2018-03-08T22:03:08.154Z,11.30
2018-03-08T22:05:35.795Z,7.47
2018-03-08T22:08:03.283Z,5.63
2018-03-08T22:10:31.557Z,4.77
2018-03-08T22:12:59.032Z,4.87
2018-03-08T22:15:27.295Z,11.93
2018-03-08T22:17:55.605Z,5.10
2018-03-08T22:20:23.097Z,6.13
2018-03-08T22:22:50.592Z,5.60
2018-03-08T22:25:18.864Z,4.90
2018-03-08T22:27:46.341Z,5.60
2018-03-08T22:30:14.601Z,4.47
2018-03-08T22:32:42.851Z,5.23
2018-03-08T22:35:10.332Z,5.20
2018-03-08T22:37:37.824Z,4.87
2018-03-08T22:40:05.364Z,6.90
2018-03-08T22:42:33.609Z,4.70
2018-03-08T22:45:01.101Z,3.97
2018-03-08T22:47:29.348Z,3.90
2018-03-08T22:49:56.820Z,3.70
2018-03-08T22:52:24.309Z,4.30
2018-03-08T22:54:51.793Z,3.40
2018-03-08T22:57:19.260Z,4.20
2018-03-08T22:59:46.752Z,3.30
2018-03-08T23:02:14.324Z,4.07
2018-03-08T23:04:42.570Z,4.30
2018-03-08T23:07:10.060Z,4.13
2018-03-08T23:09:37.523Z,3.90
2018-03-08T23:12:05.762Z,5.20
2018-03-08T23:14:33.268Z,4.63
2018-03-08T23:17:01.512Z,4.87
2018-03-08T23:19:28.980Z,4.20
2018-03-08T23:21:56.478Z,3.80
2018-03-08T23:24:23.948Z,3.63
2018-03-08T23:26:51.417Z,4.73
2018-03-08T23:29:18.907Z,4.17
2018-03-08T23:31:46.374Z,4.20
2018-03-08T23:34:13.847Z,3.70
2018-03-08T23:36:42.100Z,4.00
2018-03-08T23:39:09.561Z,3.87
2018-03-08T23:41:37.037Z,3.63
2018-03-08T23:44:05.280Z,4.17
2018-03-08T23:46:32.761Z,3.50
2018-03-08T23:49:00.257Z,4.37
2018-03-08T23:51:27.729Z,3.80
2018-03-08T23:53:55.264Z,3.87
2018-03-08T23:56:23.523Z,3.67
2018-03-08T23:58:50.992Z,3.23
